createdAt,value
2023-10-26T00:02:01.286Z,50.37
2023-10-26T00:07:03.655Z,50.61
2023-10-26T00:12:06.403Z,50.34
2023-10-26T00:17:08.992Z,50.56
2023-10-26T00:22:11.328Z,50.57
2023-10-26T00:27:13.670Z,50.93
2023-10-26T00:32:15.932Z,51.15
2023-10-26T00:37:18.185Z,50.73
2023-10-26T00:42:20.497Z,50.88
2023-10-26T00:47:22.767Z,51.39
2023-10-26T00:52:25.317Z,51.49
2023-10-26T00:57:28.733Z,51.43
2023-10-26T01:02:32.118Z,51.05
2023-10-26T01:07:34.663Z,51.63
2023-10-26T01:12:37.146Z,51.81
2023-10-26T01:17:39.438Z,51.90
2023-10-26T01:22:41.709Z,51.66
2023-10-26T01:27:44.042Z,51.39
2023-10-26T01:32:46.466Z,51.63
2023-10-26T01:37:48.726Z,51.79
2023-10-26T01:42:50.968Z,51.97
2023-10-26T01:47:55.960Z,51.51
2023-10-26T01:52:59.153Z,51.60
2023-10-26T01:58:01.443Z,51.83
2023-10-26T02:03:03.769Z,52.31
2023-10-26T02:08:06.239Z,52.40
2023-10-26T02:13:08.818Z,52.68
2023-10-26T02:18:11.070Z,53.50
2023-10-26T02:23:13.312Z,53.89
2023-10-26T02:28:21.053Z,53.53
2023-10-26T02:33:23.335Z,52.93
2023-10-26T02:38:25.629Z,52.42
2023-10-26T02:43:27.885Z,51.84
2023-10-26T02:48:30.285Z,51.58
2023-10-26T02:53:33.067Z,51.22
2023-10-26T02:58:35.694Z,51.05
2023-10-26T03:03:37.994Z,51.67
2023-10-26T03:08:40.260Z,52.30
2023-10-26T03:13:42.570Z,52.55
2023-10-26T03:18:44.894Z,52.70
2023-10-26T03:23:47.251Z,52.85
2023-10-26T03:28:53.434Z,53.10
2023-10-26T03:33:55.763Z,53.39
2023-10-26T03:38:58.095Z,53.69
2023-10-26T03:44:00.473Z,53.33
2023-10-26T03:49:02.673Z,53.47
2023-10-26T03:54:05.092Z,53.98
2023-10-26T03:59:07.502Z,54.09
2023-10-26T04:04:09.981Z,53.73
2023-10-26T04:09:12.296Z,53.89
2023-10-26T04:14:14.661Z,54.38
2023-10-26T04:19:17.021Z,54.41
2023-10-26T04:24:19.510Z,54.27
2023-10-26T04:29:21.818Z,54.14
2023-10-26T04:34:24.346Z,54.04
2023-10-26T04:39:26.570Z,54.45
2023-10-26T04:44:28.924Z,54.63
2023-10-26T04:49:31.209Z,54.37
2023-10-26T04:54:33.467Z,54.50
2023-10-26T04:59:35.843Z,55.20
2023-10-26T05:04:38.079Z,55.37
2023-10-26T05:09:40.406Z,54.97
2023-10-26T05:14:43.059Z,54.88
2023-10-26T05:19:45.491Z,55.03
2023-10-26T05:24:47.842Z,55.23
2023-10-26T05:29:50.036Z,54.80
2023-10-26T05:34:52.338Z,54.34
2023-10-26T05:39:54.597Z,54.85
2023-10-26T05:44:57.911Z,55.30
2023-10-26T05:50:00.183Z,55.58
2023-10-26T05:55:02.558Z,55.24
2023-10-26T06:00:08.356Z,55.29
2023-10-26T06:05:10.720Z,55.44
2023-10-26T06:10:13.502Z,55.43
2023-10-26T06:15:15.911Z,55.39
2023-10-26T06:20:18.470Z,55.29
2023-10-26T06:25:20.728Z,55.63
2023-10-26T06:30:25.227Z,56.18
2023-10-26T06:35:27.681Z,56.71
2023-10-26T06:40:29.931Z,56.89
2023-10-26T06:45:32.564Z,56.69
2023-10-26T06:50:35.020Z,57.13
2023-10-26T06:55:37.415Z,57.85
2023-10-26T07:00:39.679Z,57.85
2023-10-26T07:05:42.639Z,57.75
2023-10-26T07:10:45.060Z,58.07
2023-10-26T07:15:47.445Z,58.61
2023-10-26T07:20:50.639Z,59.43
2023-10-26T07:25:52.892Z,60.13
2023-10-26T07:30:55.148Z,60.34
2023-10-26T07:36:00.807Z,60.79
2023-10-26T07:41:04.916Z,61.46
2023-10-26T07:46:07.450Z,64.23
2023-10-26T07:51:09.876Z,65.19
2023-10-26T07:56:12.119Z,65.50
2023-10-26T08:01:14.368Z,66.43
2023-10-26T08:06:16.652Z,67.58
2023-10-26T08:11:18.992Z,67.68
2023-10-26T08:16:39.927Z,67.00
2023-10-26T08:21:44.109Z,67.04
2023-10-26T08:26:46.415Z,66.97
2023-10-26T08:31:48.986Z,66.85
2023-10-26T08:37:11.793Z,66.49
2023-10-26T08:42:16.747Z,66.19
2023-10-26T08:47:22.880Z,66.54
2023-10-26T08:52:26.372Z,67.33
2023-10-26T08:57:28.629Z,66.96
2023-10-26T09:02:30.967Z,66.43
2023-10-26T09:07:33.481Z,66.55
2023-10-26T09:12:35.901Z,67.05
2023-10-26T09:17:38.355Z,67.22
2023-10-26T09:22:41.764Z,66.86
2023-10-26T09:27:45.502Z,66.23
2023-10-26T09:32:47.893Z,66.50
2023-10-26T09:37:53.407Z,66.42
2023-10-26T09:42:59.031Z,66.67
2023-10-26T09:48:04.369Z,66.00
2023-10-26T09:53:07.779Z,65.76
2023-10-26T09:58:12.261Z,65.55
2023-10-26T10:03:18.450Z,65.40
2023-10-26T10:08:57.782Z,64.76
2023-10-26T10:14:00.086Z,63.03
2023-10-26T10:19:22.527Z,62.33
2023-10-26T10:24:47.974Z,61.90
2023-10-26T10:29:50.323Z,62.08
2023-10-26T10:34:53.340Z,62.48
2023-10-26T10:40:18.483Z,60.87
2023-10-26T10:45:20.985Z,59.30
2023-10-26T10:50:25.432Z,58.34
2023-10-26T10:55:29.297Z,57.98
2023-10-26T11:00:50.155Z,57.79
2023-10-26T11:05:52.515Z,55.68
2023-10-26T11:10:55.879Z,55.75
2023-10-26T11:15:58.208Z,55.51
2023-10-26T11:21:02.592Z,54.98
2023-10-26T11:26:17.120Z,54.73
2023-10-26T11:31:43.887Z,54.85
2023-10-26T11:36:46.713Z,53.12
2023-10-26T11:41:58.406Z,53.52
2023-10-26T11:47:02.059Z,52.64
2023-10-26T11:52:04.694Z,52.55
2023-10-26T11:57:07.040Z,52.53
2023-10-26T12:02:09.474Z,52.42
2023-10-26T12:07:11.723Z,51.96
2023-10-26T12:12:16.861Z,51.36
2023-10-26T12:17:19.070Z,51.09
2023-10-26T12:22:21.436Z,50.66
2023-10-26T12:27:25.123Z,51.17
2023-10-26T12:32:27.365Z,51.46
2023-10-26T12:37:29.882Z,51.28
2023-10-26T12:42:32.249Z,51.67
2023-10-26T12:47:34.562Z,51.74
2023-10-26T12:52:36.802Z,51.70
2023-10-26T12:57:38.995Z,51.80
2023-10-26T13:02:41.272Z,51.71
2023-10-26T13:07:43.571Z,51.13
2023-10-26T13:12:48.622Z,50.51
2023-10-26T13:17:51.168Z,49.86
2023-10-26T13:22:54.394Z,49.90
2023-10-26T13:27:56.945Z,49.83
2023-10-26T13:32:59.930Z,49.38
2023-10-26T13:38:02.428Z,49.32
2023-10-26T13:43:04.937Z,48.61
2023-10-26T13:48:07.207Z,48.52
2023-10-26T13:53:09.737Z,48.68
2023-10-26T13:58:11.963Z,49.10
2023-10-26T14:03:14.332Z,48.01
2023-10-26T14:08:16.648Z,48.56
2023-10-26T14:13:19.215Z,48.68
2023-10-26T14:18:21.527Z,48.13
2023-10-26T14:23:24.523Z,48.21
2023-10-26T14:28:26.865Z,48.11
2023-10-26T14:33:29.410Z,48.42
2023-10-26T14:38:31.906Z,48.23
2023-10-26T14:43:34.209Z,47.81
2023-10-26T14:48:36.961Z,48.01
2023-10-26T14:53:39.500Z,48.65
2023-10-26T14:58:41.751Z,49.07
2023-10-26T15:03:44.156Z,49.36
2023-10-26T15:08:46.497Z,49.67
2023-10-26T15:13:48.737Z,49.87
2023-10-26T15:18:51.044Z,50.20
2023-10-26T15:23:53.286Z,50.33
2023-10-26T15:28:55.927Z,50.78
2023-10-26T15:34:00.106Z,50.98
2023-10-26T15:39:02.531Z,51.38
2023-10-26T15:44:04.943Z,51.94
2023-10-26T15:49:33.793Z,52.93
2023-10-26T15:54:30.108Z,53.59
2023-10-26T15:59:33.596Z,53.58
2023-10-26T16:04:36.304Z,54.06
2023-10-26T16:09:39.253Z,54.69
2023-10-26T16:14:41.560Z,55.45
2023-10-26T16:19:43.952Z,55.37
2023-10-26T16:24:47.706Z,55.63
2023-10-26T16:29:51.772Z,55.71
2023-10-26T16:34:54.578Z,56.65
2023-10-26T16:39:57.010Z,56.61
2023-10-26T16:44:59.507Z,56.38
2023-10-26T16:50:02.091Z,56.56
2023-10-26T16:55:04.797Z,57.01
2023-10-26T17:00:08.356Z,56.85
2023-10-26T17:05:12.159Z,56.75
2023-10-26T17:10:14.498Z,56.46
2023-10-26T17:15:17.156Z,56.75
2023-10-26T17:20:20.197Z,57.14
2023-10-26T17:25:22.509Z,57.34
2023-10-26T17:30:24.828Z,56.96
2023-10-26T17:35:27.247Z,57.30
2023-10-26T17:40:29.459Z,57.70
2023-10-26T17:45:31.900Z,57.89
2023-10-26T17:50:38.991Z,58.00
2023-10-26T17:55:44.671Z,58.25
2023-10-26T18:00:46.927Z,58.78
2023-10-26T18:05:55.101Z,59.21
2023-10-26T18:10:57.658Z,59.56
2023-10-26T18:16:05.152Z,59.27
2023-10-26T18:21:09.283Z,59.33
2023-10-26T18:26:13.522Z,59.87
2023-10-26T18:31:17.747Z,60.40
2023-10-26T18:36:22.482Z,60.06
2023-10-26T18:41:26.065Z,60.09
2023-10-26T18:46:28.466Z,60.23
2023-10-26T18:51:30.891Z,60.85
2023-10-26T18:56:33.452Z,61.52
2023-10-26T19:01:36.046Z,61.67
2023-10-26T19:06:41.287Z,61.69
2023-10-26T19:11:44.090Z,61.78
2023-10-26T19:16:46.577Z,62.09
2023-10-26T19:21:48.795Z,62.06
2023-10-26T19:26:51.164Z,61.79
2023-10-26T19:31:53.413Z,61.67
2023-10-26T19:36:55.749Z,62.06
2023-10-26T19:41:58.037Z,62.33
2023-10-26T19:47:00.397Z,62.31
2023-10-26T19:52:02.685Z,61.95
2023-10-26T19:57:05.633Z,62.17
2023-10-26T20:02:09.177Z,62.32
2023-10-26T20:07:11.567Z,62.55
2023-10-26T20:12:13.843Z,62.70
2023-10-26T20:17:17.066Z,62.64
2023-10-26T20:22:19.328Z,62.87
2023-10-26T20:27:21.578Z,63.24
2023-10-26T20:32:23.944Z,63.43
2023-10-26T20:37:26.816Z,63.08
2023-10-26T20:42:29.028Z,63.22
2023-10-26T20:47:31.832Z,63.52
2023-10-26T20:52:34.043Z,63.98
2023-10-26T20:57:36.242Z,63.80
2023-10-26T21:02:40.771Z,63.47
2023-10-26T21:07:43.241Z,63.59
2023-10-26T21:12:45.598Z,64.36
2023-10-26T21:17:48.395Z,64.75
2023-10-26T21:22:50.661Z,64.39
2023-10-26T21:27:53.556Z,64.04
2023-10-26T21:32:55.834Z,64.10
2023-10-26T21:37:58.103Z,64.39
2023-10-26T21:43:00.391Z,64.17
2023-10-26T21:48:02.703Z,63.72
2023-10-26T21:53:05.203Z,64.02
2023-10-26T21:58:09.687Z,64.14
2023-10-26T22:03:11.914Z,64.60
2023-10-26T22:08:14.779Z,64.20
2023-10-26T22:13:16.989Z,63.90
2023-10-26T22:18:19.292Z,64.08
2023-10-26T22:23:21.562Z,64.32
2023-10-26T22:28:23.805Z,64.01
2023-10-26T22:33:26.006Z,63.45
2023-10-26T22:38:28.194Z,63.46
2023-10-26T22:43:30.330Z,63.84
2023-10-26T22:48:32.539Z,63.93
2023-10-26T22:53:35.179Z,64.18
2023-10-26T22:58:37.437Z,63.44
2023-10-26T23:03:39.584Z,63.24
2023-10-26T23:08:41.873Z,63.32
2023-10-26T23:13:44.086Z,63.76
2023-10-26T23:18:46.302Z,63.48
2023-10-26T23:23:48.672Z,63.24
2023-10-26T23:28:50.958Z,63.36
2023-10-26T23:33:53.605Z,63.59
2023-10-26T23:38:55.814Z,63.71
2023-10-26T23:43:57.983Z,63.15
2023-10-26T23:49:00.914Z,63.38
2023-10-26T23:54:03.333Z,63.53
2023-10-26T23:59:05.647Z,63.83
